Time;durP1;ratioP1;P1;durP2;ratioP2;P2;SDS_P1;SDS_P2;PMS_P1;PMS_P2;Temp;Humidity;BMP_temperature;BMP_pressure;BME280_temperature;BME280_humidity;BME280_pressure;Samples;Min_cycle;Max_cycle;Signal;HPM_P1;HPM_P2
2021/08/10 00:02:18;;;;;;;;;;;;;;;;;;5104263;28;1180;-54
2021/08/10 00:04:43;;;;;;;;;;;;;;;;;;5099882;28;1238;-53
2021/08/10 00:07:08;;;;;;;;;;;;;;;;;;5099426;28;1984;-54
2021/08/10 00:09:34;;;;;;;;;;;;;;;;;;5100488;28;1314;-54
2021/08/10 00:11:59;;;;;;;;;;;;;;;;;;5101013;28;1612;-54
2021/08/10 00:14:24;;;;;;;;;;;;;;;;;;5103028;28;1197;-53
2021/08/10 00:16:49;;;;;;;;;;;;;;;;;;5103148;28;1188;-54
2021/08/10 00:19:14;;;;;;;;;;;;;;;;;;5099421;28;1510;-54
2021/08/10 00:21:40;;;;;;;;;;;;;;;;;;5091287;28;1541;-54
2021/08/10 00:24:05;;;;;;;;;;;;;;;;;;5096031;28;1605;-54
2021/08/10 00:26:30;;;;;;;;;;;;;;;;;;5098251;28;1616;-54
2021/08/10 00:28:55;;;;;;;;;;;;;;;;;;5099376;28;1918;-54
2021/08/10 00:31:20;;;;;;;;;;;;;;;;;;5103017;28;1238;-54
2021/08/10 00:33:45;;;;;;;;;;;;;;;;;;5097897;28;1534;-54
2021/08/10 00:36:11;;;;;;;;;;;;;;;;;;5099611;28;1030;-53
2021/08/10 00:38:36;;;;;;;;;;;;;;;;;;5098699;28;1299;-54
2021/08/10 00:41:02;;;;;;;;;;;;;;;;;;5081506;28;1735;-53
2021/08/10 00:43:28;;;;;;;;;;;;;;;;;;5100516;28;1041;-54
2021/08/10 00:45:53;;;;;;;;;;;;;;;;;;5095674;28;1548;-54
2021/08/10 00:48:20;;;;;;;;;;;;;;;;;;5098429;28;1962;-54
2021/08/10 00:50:45;;;;;;;;;;;;;;;;;;5100470;28;1269;-53
2021/08/10 00:53:10;;;;;;;;;;;;;;;;;;5100354;28;1722;-53
2021/08/10 00:55:35;;;;;;;;;;;;;;;;;;5100785;28;1229;-54
2021/08/10 00:58:00;;;;;;;;;;;;;;;;;;5099342;28;1617;-52
2021/08/10 01:00:25;;;;;;;;;;;;;;;;;;5079937;28;1183;-53
2021/08/10 01:02:51;;;;;;;;;;;;;;;;;;5098001;28;1034;-53
2021/08/10 01:05:16;;;;;;;;;;;;;;;;;;5100070;28;1245;-53
2021/08/10 01:07:53;;;;;;;;;;;;;;;;;;5089053;28;1910;-53
2021/08/10 01:10:26;;;;;;;;;;;;;;;;;;5076859;28;1566;-53
2021/08/10 01:12:54;;;;;;;;;;;;;;;;;;5081062;28;1627;-54
2021/08/10 01:15:20;;;;;;;;;;;;;;;;;;5083387;28;1235;-53
2021/08/10 01:17:47;;;;;;;;;;;;;;;;;;5102047;28;1307;-53
2021/08/10 01:20:15;;;;;;;;;;;;;;;;;;5098416;28;1648;-54
2021/08/10 01:22:42;;;;;;;;;;;;;;;;;;5098101;28;962;-54
2021/08/10 01:25:18;;;;;;;;;;;;;;;;;;5071533;28;1535;-54
2021/08/10 01:27:50;;;;;;;;;;;;;;;;;;5082235;28;2001;-53
2021/08/10 01:30:18;;;;;;;;;;;;;;;;;;5078125;28;2020;-54
2021/08/10 01:32:44;;;;;;;;;;;;;;;;;;5081611;28;1358;-54
2021/08/10 01:35:09;;;;;;;;;;;;;;;;;;5082495;28;1231;-54
2021/08/10 01:37:35;;;;;;;;;;;;;;;;;;5076444;28;1637;-53
2021/08/10 01:40:06;;;;;;;;;;;;;;;;;;5098247;28;1222;-54
2021/08/10 01:42:31;;;;;;;;;;;;;;;;;;5094984;28;1661;-54
2021/08/10 01:44:57;;;;;;;;;;;;;;;;;;5101423;28;1116;-54
2021/08/10 01:47:22;;;;;;;;;;;;;;;;;;5078365;28;2012;-54
2021/08/10 01:49:48;;;;;;;;;;;;;;;;;;5097275;28;1242;-53
2021/08/10 01:52:14;;;;;;;;;;;;;;;;;;5097368;28;1594;-53
2021/08/10 01:54:40;;;;;;;;;;;;;;;;;;5101703;28;1171;-53
2021/08/10 01:57:05;;;;;;;;;;;;;;;;;;5081133;28;1639;-53
2021/08/10 01:59:30;;;;;;;;;;;;;;;;;;5080079;28;1306;-53
2021/08/10 02:01:55;;;;;;;;;;;;;;;;;;5081131;28;1194;-53
2021/08/10 02:04:20;;;;;;;;;;;;;;;;;;5076065;28;1571;-53
2021/08/10 02:06:46;;;;;;;;;;;;;;;;;;5079435;28;1633;-54
2021/08/10 02:09:11;;;;;;;;;;;;;;;;;;5080765;28;1977;-54
2021/08/10 02:11:36;;;;;;;;;;;;;;;;;;5077441;28;1641;-54
2021/08/10 02:14:02;;;;;;;;;;;;;;;;;;5081531;28;1223;-53
2021/08/10 02:16:27;;;;;;;;;;;;;;;;;;5094439;28;1565;-54
2021/08/10 02:18:52;;;;;;;;;;;;;;;;;;5100879;28;1284;-54
2021/08/10 02:21:36;;;;;;;;;;;;;;;;;;5081475;28;1231;-53
2021/08/10 02:24:08;;;;;;;;;;;;;;;;;;5081867;28;1178;-54
2021/08/10 02:26:35;;;;;;;;;;;;;;;;;;5095413;28;1621;-54
2021/08/10 02:29:00;;;;;;;;;;;;;;;;;;5071096;28;1989;-53
2021/08/10 02:31:25;;;;;;;;;;;;;;;;;;5095152;28;1210;-54
2021/08/10 02:33:51;;;;;;;;;;;;;;;;;;5079489;28;1392;-52
2021/08/10 02:36:16;;;;;;;;;;;;;;;;;;5076715;28;1595;-53
2021/08/10 02:38:42;;;;;;;;;;;;;;;;;;5083016;28;1272;-54
2021/08/10 02:41:07;;;;;;;;;;;;;;;;;;5074899;28;1589;-54
2021/08/10 02:43:32;;;;;;;;;;;;;;;;;;5077636;28;1242;-53
2021/08/10 02:45:58;;;;;;;;;;;;;;;;;;5098659;28;1227;-53
2021/08/10 02:48:23;;;;;;;;;;;;;;;;;;5098004;28;1897;-53
2021/08/10 02:50:48;;;;;;;;;;;;;;;;;;5077646;28;1638;-53
2021/08/10 02:53:14;;;;;;;;;;;;;;;;;;5098101;28;1176;-53
2021/08/10 02:55:40;;;;;;;;;;;;;;;;;;5097008;28;1374;-52
2021/08/10 02:58:09;;;;;;;;;;;;;;;;;;5079224;28;1671;-54
2021/08/10 03:00:36;;;;;;;;;;;;;;;;;;5078021;28;1332;-53
2021/08/10 03:03:10;;;;;;;;;;;;;;;;;;5097780;28;1234;-53
2021/08/10 03:05:35;;;;;;;;;;;;;;;;;;5098650;28;1160;-54
2021/08/10 03:08:01;;;;;;;;;;;;;;;;;;5093863;28;1905;-53
2021/08/10 03:10:27;;;;;;;;;;;;;;;;;;5081575;28;1018;-54
2021/08/10 03:12:52;;;;;;;;;;;;;;;;;;5077281;28;1588;-54
2021/08/10 03:15:20;;;;;;;;;;;;;;;;;;5097200;28;1249;-54
2021/08/10 03:17:45;;;;;;;;;;;;;;;;;;5099084;28;1271;-53
2021/08/10 03:20:11;;;;;;;;;;;;;;;;;;5079435;28;1570;-54
2021/08/10 03:22:37;;;;;;;;;;;;;;;;;;5077119;28;1315;-54
2021/08/10 03:25:03;;;;;;;;;;;;;;;;;;5080564;28;1169;-54
2021/08/10 03:27:28;;;;;;;;;;;;;;;;;;5074630;28;1909;-54
2021/08/10 03:29:54;;;;;;;;;;;;;;;;;;5099222;28;1120;-54
2021/08/10 03:32:19;;;;;;;;;;;;;;;;;;5085360;28;1553;-53
2021/08/10 03:34:44;;;;;;;;;;;;;;;;;;5078689;28;1242;-54
2021/08/10 03:37:09;;;;;;;;;;;;;;;;;;5081111;28;1362;-53
2021/08/10 03:39:34;;;;;;;;;;;;;;;;;;5079323;28;1282;-53
2021/08/10 03:42:00;;;;;;;;;;;;;;;;;;5096960;28;1557;-54
2021/08/10 03:44:25;;;;;;;;;;;;;;;;;;5094513;28;1266;-54
2021/08/10 03:46:50;;;;;;;;;;;;;;;;;;5079853;28;1271;-54
2021/08/10 03:49:16;;;;;;;;;;;;;;;;;;5099339;28;1996;-53
2021/08/10 03:51:41;;;;;;;;;;;;;;;;;;5096386;28;1804;-53
2021/08/10 03:54:06;;;;;;;;;;;;;;;;;;5096170;28;1394;-54
2021/08/10 03:56:32;;;;;;;;;;;;;;;;;;5095841;28;1572;-53
2021/08/10 03:58:57;;;;;;;;;;;;;;;;;;5079450;28;1387;-53
2021/08/10 04:01:23;;;;;;;;;;;;;;;;;;5081274;28;1283;-53
2021/08/10 04:03:48;;;;;;;;;;;;;;;;;;5092365;28;1214;-52
2021/08/10 04:06:13;;;;;;;;;;;;;;;;;;5077329;28;1519;-54
2021/08/10 04:08:39;;;;;;;;;;;;;;;;;;5078890;28;1946;-53
2021/08/10 04:11:04;;;;;;;;;;;;;;;;;;5099479;28;2089;-52
2021/08/10 04:13:30;;;;;;;;;;;;;;;;;;5095999;28;1330;-54
2021/08/10 04:15:55;;;;;;;;;;;;;;;;;;5099986;28;996;-53
2021/08/10 04:18:22;;;;;;;;;;;;;;;;;;5083745;28;1309;-52
2021/08/10 04:20:48;;;;;;;;;;;;;;;;;;5081998;28;1571;-53
2021/08/10 04:23:13;;;;;;;;;;;;;;;;;;5102666;28;1172;-53
2021/08/10 04:25:38;;;;;;;;;;;;;;;;;;5099116;28;1222;-53
2021/08/10 04:28:03;;;;;;;;;;;;;;;;;;5096962;28;1914;-54
2021/08/10 04:30:28;;;;;;;;;;;;;;;;;;5101130;28;1103;-53
2021/08/10 04:32:53;;;;;;;;;;;;;;;;;;5098126;28;1278;-53
2021/08/10 04:35:19;;;;;;;;;;;;;;;;;;5094735;28;1657;-53
2021/08/10 04:37:44;;;;;;;;;;;;;;;;;;5085254;28;1459;-53
2021/08/10 04:40:09;;;;;;;;;;;;;;;;;;5096416;28;1254;-54
2021/08/10 04:42:34;;;;;;;;;;;;;;;;;;5091536;28;1576;-53
2021/08/10 04:45:00;;;;;;;;;;;;;;;;;;5085905;28;1171;-54
2021/08/10 04:47:25;;;;;;;;;;;;;;;;;;5094621;28;1956;-53
2021/08/10 04:49:50;;;;;;;;;;;;;;;;;;5094567;28;1211;-53
2021/08/10 04:52:15;;;;;;;;;;;;;;;;;;5093550;28;1486;-53
2021/08/10 04:54:41;;;;;;;;;;;;;;;;;;5092324;28;1092;-53
2021/08/10 04:57:06;;;;;;;;;;;;;;;;;;5093933;28;1584;-54
2021/08/10 04:59:31;;;;;;;;;;;;;;;;;;5090255;28;1945;-54
2021/08/10 05:01:56;;;;;;;;;;;;;;;;;;5095219;28;998;-53
2021/08/10 05:04:21;;;;;;;;;;;;;;;;;;5094572;28;1165;-53
2021/08/10 05:06:47;;;;;;;;;;;;;;;;;;5089556;28;1084;-53
2021/08/10 05:09:12;;;;;;;;;;;;;;;;;;5092260;28;1894;-54
2021/08/10 05:11:37;;;;;;;;;;;;;;;;;;5093846;28;1557;-54
2021/08/10 05:14:02;;;;;;;;;;;;;;;;;;5095717;28;1151;-53
2021/08/10 05:16:28;;;;;;;;;;;;;;;;;;5090840;28;1207;-54
2021/08/10 05:18:53;;;;;;;;;;;;;;;;;;5094496;28;1299;-53
2021/08/10 05:21:19;;;;;;;;;;;;;;;;;;5093666;28;1653;-54
2021/08/10 05:23:44;;;;;;;;;;;;;;;;;;5097038;28;1171;-53
2021/08/10 05:26:10;;;;;;;;;;;;;;;;;;5092624;28;1557;-53
2021/08/10 05:28:35;;;;;;;;;;;;;;;;;;5095280;28;1981;-53
2021/08/10 05:31:00;;;;;;;;;;;;;;;;;;5097979;28;1184;-53
2021/08/10 05:33:25;;;;;;;;;;;;;;;;;;5098433;28;1147;-54
2021/08/10 05:35:50;;;;;;;;;;;;;;;;;;5099376;28;1725;-54
2021/08/10 05:38:16;;;;;;;;;;;;;;;;;;5086060;28;1558;-54
2021/08/10 05:40:41;;;;;;;;;;;;;;;;;;5097478;28;1282;-54
2021/08/10 05:43:06;;;;;;;;;;;;;;;;;;5094441;28;1614;-54
2021/08/10 05:45:31;;;;;;;;;;;;;;;;;;5100844;28;1171;-53
2021/08/10 05:47:56;;;;;;;;;;;;;;;;;;5097208;28;1917;-53
2021/08/10 05:50:21;;;;;;;;;;;;;;;;;;5098807;28;1231;-54
2021/08/10 05:52:47;;;;;;;;;;;;;;;;;;5097209;28;1539;-53
2021/08/10 05:55:12;;;;;;;;;;;;;;;;;;5100039;28;1009;-53
2021/08/10 05:57:37;;;;;;;;;;;;;;;;;;5095228;28;1559;-54
2021/08/10 06:00:03;;;;;;;;;;;;;;;;;;5096728;28;1184;-53
2021/08/10 06:02:28;;;;;;;;;;;;;;;;;;5096712;28;1557;-52
2021/08/10 06:04:53;;;;;;;;;;;;;;;;;;5097629;28;1514;-53
2021/08/10 06:07:19;;;;;;;;;;;;;;;;;;5098321;28;1905;-53
2021/08/10 06:09:44;;;;;;;;;;;;;;;;;;5097204;28;1230;-52
2021/08/10 06:12:10;;;;;;;;;;;;;;;;;;5096707;28;1699;-53
2021/08/10 06:14:35;;;;;;;;;;;;;;;;;;5099627;28;1210;-55
2021/08/10 06:17:00;;;;;;;;;;;;;;;;;;5101246;28;1308;-55
2021/08/10 06:19:25;;;;;;;;;;;;;;;;;;5094786;28;1610;-55
2021/08/10 06:21:52;;;;;;;;;;;;;;;;;;5098880;28;1164;-55
2021/08/10 06:24:17;;;;;;;;;;;;;;;;;;5099936;28;1107;-55
2021/08/10 06:26:42;;;;;;;;;;;;;;;;;;5097643;28;1610;-55
2021/08/10 06:29:07;;;;;;;;;;;;;;;;;;5093820;28;1910;-55
2021/08/10 06:31:32;;;;;;;;;;;;;;;;;;5098444;28;1104;-55
2021/08/10 06:33:58;;;;;;;;;;;;;;;;;;5095561;28;1311;-54
2021/08/10 06:36:23;;;;;;;;;;;;;;;;;;5098120;28;1567;-55
2021/08/10 06:38:48;;;;;;;;;;;;;;;;;;5087408;28;1507;-54
2021/08/10 06:41:13;;;;;;;;;;;;;;;;;;5096607;28;1507;-53
2021/08/10 06:43:38;;;;;;;;;;;;;;;;;;5097204;28;1306;-55
2021/08/10 06:46:04;;;;;;;;;;;;;;;;;;5100125;28;1152;-55
2021/08/10 06:48:29;;;;;;;;;;;;;;;;;;5093925;28;2020;-55
2021/08/10 06:50:54;;;;;;;;;;;;;;;;;;5095069;28;1187;-55
2021/08/10 06:53:20;;;;;;;;;;;;;;;;;;5098139;28;1191;-55
2021/08/10 06:55:45;;;;;;;;;;;;;;;;;;5097515;28;1537;-55
2021/08/10 06:58:10;;;;;;;;;;;;;;;;;;5097995;28;1652;-55
2021/08/10 07:00:36;;;;;;;;;;;;;;;;;;5100518;28;1171;-55
2021/08/10 07:03:01;;;;;;;;;;;;;;;;;;5100246;28;1187;-55
2021/08/10 07:05:27;;;;;;;;;;;;;;;;;;5100456;28;1278;-56
2021/08/10 07:07:52;;;;;;;;;;;;;;;;;;5095302;28;1906;-55
2021/08/10 07:10:17;;;;;;;;;;;;;;;;;;5093756;28;2012;-55
2021/08/10 07:12:42;;;;;;;;;;;;;;;;;;5094848;28;1781;-55
2021/08/10 07:15:07;;;;;;;;;;;;;;;;;;5097434;28;1160;-55
2021/08/10 07:17:33;;;;;;;;;;;;;;;;;;5100299;28;1358;-55
2021/08/10 07:19:58;;;;;;;;;;;;;;;;;;5094189;28;1633;-56
2021/08/10 07:22:23;;;;;;;;;;;;;;;;;;5095928;28;1124;-55
2021/08/10 07:24:48;;;;;;;;;;;;;;;;;;5097972;28;1166;-56
2021/08/10 07:29:44;;;;;;;;;;;;;;;;;;5118492;22;1893;-56
2021/08/10 07:32:10;;;;;;;;;;;;;;;;;;5099128;28;1172;-56
2021/08/10 07:34:35;;;;;;;;;;;;;;;;;;5099139;28;1179;-55
2021/08/10 07:37:01;;;;;;;;;;;;;;;;;;5103440;28;1175;-55
2021/08/10 07:39:26;;;;;;;;;;;;;;;;;;5084032;28;1560;-52
2021/08/10 07:41:51;;;;;;;;;;;;;;;;;;5096134;28;1546;-55
2021/08/10 07:44:16;;;;;;;;;;;;;;;;;;5099271;28;1179;-56
2021/08/10 07:46:41;;;;;;;;;;;;;;;;;;5096387;28;1067;-56
2021/08/10 07:49:07;;;;;;;;;;;;;;;;;;5100807;28;1918;-56
2021/08/10 07:51:32;;;;;;;;;;;;;;;;;;5099572;28;1244;-55
2021/08/10 07:53:57;;;;;;;;;;;;;;;;;;5099630;28;1084;-56
2021/08/10 07:56:22;;;;;;;;;;;;;;;;;;5097943;28;1588;-56
2021/08/10 07:58:47;;;;;;;;;;;;;;;;;;5102418;28;1385;-56
2021/08/10 08:01:13;;;;;;;;;;;;;;;;;;5097783;28;1572;-56
2021/08/10 08:03:38;;;;;;;;;;;;;;;;;;5097518;28;1250;-56
2021/08/10 08:06:03;;;;;;;;;;;;;;;;;;5098637;28;1623;-55
2021/08/10 08:08:30;;;;;;;;;;;;;;;;;;5101643;28;2340;-56
2021/08/10 08:10:55;;;;;;;;;;;;;;;;;;5102581;28;1243;-56
2021/08/10 08:13:21;;;;;;;;;;;;;;;;;;5101391;28;1605;-55
2021/08/10 08:15:46;;;;;;;;;;;;;;;;;;5096882;28;1599;-55
2021/08/10 08:18:11;;;;;;;;;;;;;;;;;;5101599;28;1214;-56
2021/08/10 08:20:36;;;;;;;;;;;;;;;;;;5103315;28;1167;-56
2021/08/10 08:23:02;;;;;;;;;;;;;;;;;;5095833;28;1628;-56
2021/08/10 08:25:27;;;;;;;;;;;;;;;;;;5099830;28;1175;-56
2021/08/10 08:27:52;;;;;;;;;;;;;;;;;;5097097;28;1918;-56
2021/08/10 08:30:18;;;;;;;;;;;;;;;;;;5103055;28;1104;-55
2021/08/10 08:32:43;;;;;;;;;;;;;;;;;;5095840;28;1167;-53
2021/08/10 08:35:09;;;;;;;;;;;;;;;;;;5100403;28;1523;-55
2021/08/10 08:37:34;;;;;;;;;;;;;;;;;;5100914;28;1514;-56
2021/08/10 08:39:59;;;;;;;;;;;;;;;;;;5093221;28;1525;-53
2021/08/10 08:42:25;;;;;;;;;;;;;;;;;;5095592;28;1577;-55
2021/08/10 08:44:50;;;;;;;;;;;;;;;;;;5099117;28;1120;-56
2021/08/10 08:47:18;;;;;;;;;;;;;;;;;;5100793;28;1235;-56
2021/08/10 08:49:44;;;;;;;;;;;;;;;;;;5098911;28;1902;-56
2021/08/10 08:52:09;;;;;;;;;;;;;;;;;;5082325;28;1693;-56
2021/08/10 08:54:35;;;;;;;;;;;;;;;;;;5099239;28;1186;-56
2021/08/10 08:57:00;;;;;;;;;;;;;;;;;;5093880;28;2007;-55
2021/08/10 08:59:25;;;;;;;;;;;;;;;;;;5099706;28;1290;-54
2021/08/10 09:01:51;;;;;;;;;;;;;;;;;;5090938;28;1080;-52
2021/08/10 09:04:17;;;;;;;;;;;;;;;;;;5051213;28;1116;-56
2021/08/10 09:06:42;;;;;;;;;;;;;;;;;;5098308;28;1510;-56
2021/08/10 09:09:23;;;;;;;;;;;;;;;;;;5100556;28;1977;-53
2021/08/10 09:11:49;;;;;;;;;;;;;;;;;;5100073;28;1581;-53
2021/08/10 09:14:14;;;;;;;;;;;;;;;;;;5101541;28;1276;-54
2021/08/10 09:16:40;;;;;;;;;;;;;;;;;;5099246;28;1067;-53
2021/08/10 09:19:05;;;;;;;;;;;;;;;;;;5097525;28;1577;-54
2021/08/10 09:21:33;;;;;;;;;;;;;;;;;;5101960;28;1120;-53
2021/08/10 09:23:58;;;;;;;;;;;;;;;;;;5093254;28;1378;-53
2021/08/10 09:26:39;;;;;;;;;;;;;;;;;;5095540;28;1581;-52
2021/08/10 09:29:04;;;;;;;;;;;;;;;;;;5096967;28;1902;-55
2021/08/10 09:31:31;;;;;;;;;;;;;;;;;;5100356;28;1178;-56
2021/08/10 09:33:56;;;;;;;;;;;;;;;;;;5097452;28;1605;-55
2021/08/10 09:36:21;;;;;;;;;;;;;;;;;;5096303;28;1321;-56
2021/08/10 09:38:47;;;;;;;;;;;;;;;;;;5095216;28;1469;-56
2021/08/10 09:41:14;;;;;;;;;;;;;;;;;;5086849;28;1729;-52
2021/08/10 09:43:40;;;;;;;;;;;;;;;;;;5092101;28;1530;-55
2021/08/10 09:46:09;;;;;;;;;;;;;;;;;;5099006;28;1159;-56
2021/08/10 09:48:34;;;;;;;;;;;;;;;;;;5098396;28;1898;-56
2021/08/10 09:51:06;;;;;;;;;;;;;;;;;;5104701;28;1195;-55
2021/08/10 09:53:31;;;;;;;;;;;;;;;;;;5094083;28;1621;-56
2021/08/10 09:55:57;;;;;;;;;;;;;;;;;;5101817;28;1032;-56
2021/08/10 09:58:23;;;;;;;;;;;;;;;;;;5100778;28;1807;-55
2021/08/10 10:00:50;;;;;;;;;;;;;;;;;;5101008;28;1234;-56
2021/08/10 10:03:16;;;;;;;;;;;;;;;;;;5102022;28;1598;-55
2021/08/10 10:05:43;;;;;;;;;;;;;;;;;;5099706;28;1151;-55
2021/08/10 10:08:14;;;;;;;;;;;;;;;;;;5094380;28;1905;-56
2021/08/10 10:10:40;;;;;;;;;;;;;;;;;;5092958;28;1083;-55
2021/08/10 10:13:05;;;;;;;;;;;;;;;;;;5067622;28;1660;-55
2021/08/10 10:15:30;;;;;;;;;;;;;;;;;;5072040;28;1353;-56
2021/08/10 10:17:56;;;;;;;;;;;;;;;;;;5077688;28;1283;-55
2021/08/10 10:20:22;;;;;;;;;;;;;;;;;;5084718;28;1565;-56
2021/08/10 10:22:47;;;;;;;;;;;;;;;;;;5091678;28;1088;-50
2021/08/10 10:25:12;;;;;;;;;;;;;;;;;;5096316;28;1246;-53
2021/08/10 10:27:37;;;;;;;;;;;;;;;;;;5068589;28;1945;-54
2021/08/10 10:30:03;;;;;;;;;;;;;;;;;;5097053;28;1132;-53
2021/08/10 10:32:28;;;;;;;;;;;;;;;;;;5095524;28;1371;-50
2021/08/10 10:34:53;;;;;;;;;;;;;;;;;;5098132;28;1029;-53
2021/08/10 10:37:25;;;;;;;;;;;;;;;;;;5097919;28;1607;-52
2021/08/10 10:39:51;;;;;;;;;;;;;;;;;;5082619;28;1204;-51
2021/08/10 10:42:16;;;;;;;;;;;;;;;;;;5078587;28;1584;-52
2021/08/10 10:44:42;;;;;;;;;;;;;;;;;;5090663;28;1550;-53
2021/08/10 10:47:20;;;;;;;;;;;;;;;;;;5094923;28;1231;-52
2021/08/10 10:49:45;;;;;;;;;;;;;;;;;;5084952;28;1971;-56
2021/08/10 10:52:10;;;;;;;;;;;;;;;;;;5084143;28;1946;-56
2021/08/10 10:54:42;;;;;;;;;;;;;;;;;;5080665;28;1286;-56
2021/08/10 10:57:07;;;;;;;;;;;;;;;;;;5075121;28;1567;-56
2021/08/10 10:59:35;;;;;;;;;;;;;;;;;;5100123;28;1365;-56
2021/08/10 11:02:11;;;;;;;;;;;;;;;;;;5097846;28;1170;-57
2021/08/10 11:04:36;;;;;;;;;;;;;;;;;;5091437;28;1419;-56
2021/08/10 11:07:01;;;;;;;;;;;;;;;;;;5096854;28;1617;-56
2021/08/10 11:09:52;;;;;;;;;;;;;;;;;;5078134;28;1913;-56
2021/08/10 11:12:30;;;;;;;;;;;;;;;;;;5093856;28;1534;-56
2021/08/10 11:14:55;;;;;;;;;;;;;;;;;;5093813;28;1129;-56
2021/08/10 11:17:20;;;;;;;;;;;;;;;;;;5094588;28;1410;-56
2021/08/10 11:19:46;;;;;;;;;;;;;;;;;;5096466;28;1609;-55
2021/08/10 11:22:14;;;;;;;;;;;;;;;;;;5092999;28;1577;-55
2021/08/10 11:24:39;;;;;;;;;;;;;;;;;;5102217;28;1124;-55
2021/08/10 11:27:24;;;;;;;;;;;;;;;;;;5097964;28;1474;-56
2021/08/10 11:29:49;;;;;;;;;;;;;;;;;;5101215;28;1967;-56
2021/08/10 11:32:33;;;;;;;;;;;;;;;;;;5099973;28;1185;-56
2021/08/10 11:35:00;;;;;;;;;;;;;;;;;;5100119;28;1589;-53
2021/08/10 11:37:25;;;;;;;;;;;;;;;;;;5078377;28;1540;-52
2021/08/10 11:40:20;;;;;;;;;;;;;;;;;;5100633;28;968;-56
2021/08/10 11:42:51;;;;;;;;;;;;;;;;;;5085769;28;1565;-55
2021/08/10 11:45:16;;;;;;;;;;;;;;;;;;5102543;28;1144;-56
2021/08/10 11:47:42;;;;;;;;;;;;;;;;;;5071247;28;1899;-56
2021/08/10 11:50:07;;;;;;;;;;;;;;;;;;5081577;28;1414;-56
2021/08/10 11:52:45;;;;;;;;;;;;;;;;;;5102689;28;1124;-56
2021/08/10 11:55:10;;;;;;;;;;;;;;;;;;5099062;28;1502;-56
2021/08/10 11:57:35;;;;;;;;;;;;;;;;;;5098505;28;1562;-56
2021/08/10 12:00:20;;;;;;;;;;;;;;;;;;5099480;28;1178;-56
2021/08/10 12:02:45;;;;;;;;;;;;;;;;;;5102836;28;1104;-56
2021/08/10 12:05:11;;;;;;;;;;;;;;;;;;5083342;28;1652;-56
2021/08/10 12:07:36;;;;;;;;;;;;;;;;;;5100519;28;1906;-56
2021/08/10 12:10:02;;;;;;;;;;;;;;;;;;5098607;28;1355;-56
2021/08/10 12:12:31;;;;;;;;;;;;;;;;;;5098961;28;1601;-56
2021/08/10 12:14:56;;;;;;;;;;;;;;;;;;5081398;28;1702;-56
2021/08/10 12:17:21;;;;;;;;;;;;;;;;;;5098731;28;1382;-55
2021/08/10 12:19:47;;;;;;;;;;;;;;;;;;5098581;28;1530;-56
2021/08/10 12:22:18;;;;;;;;;;;;;;;;;;5103451;28;1108;-55
2021/08/10 12:24:43;;;;;;;;;;;;;;;;;;5100683;28;1326;-56
2021/08/10 12:27:09;;;;;;;;;;;;;;;;;;5099019;28;1546;-56
2021/08/10 12:29:35;;;;;;;;;;;;;;;;;;5098009;28;1914;-56
2021/08/10 12:32:01;;;;;;;;;;;;;;;;;;5100641;28;1223;-56
2021/08/10 12:34:29;;;;;;;;;;;;;;;;;;5080478;28;1230;-56
2021/08/10 12:36:55;;;;;;;;;;;;;;;;;;5103030;28;968;-56
2021/08/10 12:39:20;;;;;;;;;;;;;;;;;;5100353;28;1416;-56
2021/08/10 12:41:46;;;;;;;;;;;;;;;;;;5080846;28;1646;-55
2021/08/10 12:44:11;;;;;;;;;;;;;;;;;;5078427;28;1566;-56
2021/08/10 12:46:36;;;;;;;;;;;;;;;;;;5085731;28;1171;-56
2021/08/10 12:49:05;;;;;;;;;;;;;;;;;;5090095;28;1902;-55
2021/08/10 12:51:48;;;;;;;;;;;;;;;;;;5101847;28;1325;-55
2021/08/10 12:54:13;;;;;;;;;;;;;;;;;;5099274;28;1285;-56
2021/08/10 12:56:39;;;;;;;;;;;;;;;;;;5099647;28;1593;-56
2021/08/10 12:59:04;;;;;;;;;;;;;;;;;;5083443;28;1381;-56
2021/08/10 13:01:37;;;;;;;;;;;;;;;;;;5098372;28;1163;-56
2021/08/10 13:04:08;;;;;;;;;;;;;;;;;;5101298;28;1172;-60
2021/08/10 13:06:34;;;;;;;;;;;;;;;;;;5098900;28;1554;-56
2021/08/10 13:08:59;;;;;;;;;;;;;;;;;;5083376;28;1901;-56
2021/08/10 13:11:24;;;;;;;;;;;;;;;;;;5096292;28;1570;-56
2021/08/10 13:13:52;;;;;;;;;;;;;;;;;;5098306;28;1108;-56
2021/08/10 13:16:34;;;;;;;;;;;;;;;;;;5078465;28;1633;-56
2021/08/10 13:19:11;;;;;;;;;;;;;;;;;;5099197;28;1349;-56
2021/08/10 13:21:50;;;;;;;;;;;;;;;;;;5097661;28;1081;-56
2021/08/10 13:24:19;;;;;;;;;;;;;;;;;;5098808;28;1577;-56
2021/08/10 13:26:48;;;;;;;;;;;;;;;;;;5101225;28;1546;-56
2021/08/10 13:29:13;;;;;;;;;;;;;;;;;;5116720;22;1985;-55
2021/08/10 13:31:51;;;;;;;;;;;;;;;;;;5101313;28;1203;-55
2021/08/10 13:34:17;;;;;;;;;;;;;;;;;;5101203;28;1127;-55
2021/08/10 13:36:42;;;;;;;;;;;;;;;;;;5102230;28;1443;-55
2021/08/10 13:39:07;;;;;;;;;;;;;;;;;;5099453;28;1605;-55
2021/08/10 13:41:33;;;;;;;;;;;;;;;;;;5102752;27;1616;-55
2021/08/10 13:43:58;;;;;;;;;;;;;;;;;;5101013;28;1108;-55
2021/08/10 13:46:30;;;;;;;;;;;;;;;;;;5102073;27;1175;-55
2021/08/10 13:48:58;;;;;;;;;;;;;;;;;;5096715;28;1963;-55
2021/08/10 13:51:25;;;;;;;;;;;;;;;;;;5100092;28;1242;-54
2021/08/10 13:53:50;;;;;;;;;;;;;;;;;;5101499;28;1597;-55
2021/08/10 13:56:15;;;;;;;;;;;;;;;;;;5099202;28;1652;-56
2021/08/10 13:58:40;;;;;;;;;;;;;;;;;;5100644;27;1415;-54
2021/08/10 14:01:07;;;;;;;;;;;;;;;;;;5100367;28;1214;-55
2021/08/10 14:03:34;;;;;;;;;;;;;;;;;;5101037;27;1615;-55
2021/08/10 14:06:00;;;;;;;;;;;;;;;;;;5107508;27;1314;-54
2021/08/10 14:08:25;;;;;;;;;;;;;;;;;;5099404;28;1917;-55
2021/08/10 14:10:50;;;;;;;;;;;;;;;;;;5099003;28;1071;-55
2021/08/10 14:13:15;;;;;;;;;;;;;;;;;;5103872;28;1593;-56
2021/08/10 14:15:42;;;;;;;;;;;;;;;;;;5103640;27;1590;-54
2021/08/10 14:18:07;;;;;;;;;;;;;;;;;;5104712;27;1504;-56
2021/08/10 14:20:33;;;;;;;;;;;;;;;;;;5101184;27;1197;-55
2021/08/10 14:22:58;;;;;;;;;;;;;;;;;;5100844;27;1617;-55
2021/08/10 14:25:23;;;;;;;;;;;;;;;;;;5099643;28;1020;-54
2021/08/10 14:27:48;;;;;;;;;;;;;;;;;;5102367;27;1965;-55
2021/08/10 14:30:13;;;;;;;;;;;;;;;;;;5099863;28;1311;-55
2021/08/10 14:32:39;;;;;;;;;;;;;;;;;;5102023;27;1208;-56
2021/08/10 14:35:04;;;;;;;;;;;;;;;;;;5101749;27;1634;-55
2021/08/10 14:37:29;;;;;;;;;;;;;;;;;;5099611;28;1747;-54
2021/08/10 14:39:55;;;;;;;;;;;;;;;;;;5100062;28;1283;-56
2021/08/10 14:42:20;;;;;;;;;;;;;;;;;;5101474;28;1588;-54
2021/08/10 14:44:45;;;;;;;;;;;;;;;;;;5100246;28;1159;-55
2021/08/10 14:47:10;;;;;;;;;;;;;;;;;;5098501;28;1383;-54
2021/08/10 14:49:35;;;;;;;;;;;;;;;;;;5094242;28;1909;-55
2021/08/10 14:52:00;;;;;;;;;;;;;;;;;;5098555;28;1211;-55
2021/08/10 14:54:25;;;;;;;;;;;;;;;;;;5099395;28;1308;-54
2021/08/10 14:56:51;;;;;;;;;;;;;;;;;;5098239;28;1585;-55
2021/08/10 14:59:16;;;;;;;;;;;;;;;;;;5099115;28;1291;-56
2021/08/10 15:01:41;;;;;;;;;;;;;;;;;;5100606;28;1529;-54
2021/08/10 15:04:06;;;;;;;;;;;;;;;;;;5101458;28;1215;-55
2021/08/10 15:06:31;;;;;;;;;;;;;;;;;;5099249;28;1405;-55
2021/08/10 15:08:57;;;;;;;;;;;;;;;;;;5099829;28;1902;-56
2021/08/10 15:11:22;;;;;;;;;;;;;;;;;;5098863;28;1715;-55
2021/08/10 15:13:47;;;;;;;;;;;;;;;;;;5102158;28;1549;-55
2021/08/10 15:16:12;;;;;;;;;;;;;;;;;;5099851;28;1123;-55
2021/08/10 15:18:37;;;;;;;;;;;;;;;;;;5103138;28;1283;-55
2021/08/10 15:21:02;;;;;;;;;;;;;;;;;;5098489;28;1548;-55
2021/08/10 15:23:28;;;;;;;;;;;;;;;;;;5098659;28;1555;-55
2021/08/10 15:25:53;;;;;;;;;;;;;;;;;;5099539;28;1080;-56
2021/08/10 15:28:18;;;;;;;;;;;;;;;;;;5099639;28;1902;-55
2021/08/10 15:30:43;;;;;;;;;;;;;;;;;;5099286;28;1150;-55
2021/08/10 15:33:08;;;;;;;;;;;;;;;;;;5100382;28;1166;-55
2021/08/10 15:35:34;;;;;;;;;;;;;;;;;;5100992;28;1606;-56
2021/08/10 15:37:59;;;;;;;;;;;;;;;;;;5098581;28;1103;-55
2021/08/10 15:40:24;;;;;;;;;;;;;;;;;;5101839;28;1256;-55
2021/08/10 15:42:49;;;;;;;;;;;;;;;;;;5098543;28;1600;-55
2021/08/10 15:45:14;;;;;;;;;;;;;;;;;;5100641;28;1548;-56
2021/08/10 15:47:40;;;;;;;;;;;;;;;;;;5102422;28;1099;-55
2021/08/10 15:50:05;;;;;;;;;;;;;;;;;;5098681;28;1978;-56
2021/08/10 15:52:30;;;;;;;;;;;;;;;;;;5100069;28;1335;-55
2021/08/10 15:54:56;;;;;;;;;;;;;;;;;;5101216;28;1577;-56
2021/08/10 15:57:21;;;;;;;;;;;;;;;;;;5099102;28;1577;-55
2021/08/10 15:59:46;;;;;;;;;;;;;;;;;;5100502;28;1498;-54
2021/08/10 16:02:11;;;;;;;;;;;;;;;;;;5099060;28;1170;-54
2021/08/10 16:04:36;;;;;;;;;;;;;;;;;;5101907;28;1200;-56
2021/08/10 16:07:02;;;;;;;;;;;;;;;;;;5100442;28;1647;-55
2021/08/10 16:09:28;;;;;;;;;;;;;;;;;;5103378;27;1905;-56
2021/08/10 16:11:58;;;;;;;;;;;;;;;;;;5107531;28;1636;-55
2021/08/10 16:14:23;;;;;;;;;;;;;;;;;;5102843;27;1472;-56
2021/08/10 16:16:48;;;;;;;;;;;;;;;;;;5103653;28;1230;-55
2021/08/10 16:19:13;;;;;;;;;;;;;;;;;;5102476;27;1295;-55
2021/08/10 16:21:40;;;;;;;;;;;;;;;;;;5102752;28;1573;-55
2021/08/10 16:24:05;;;;;;;;;;;;;;;;;;5103623;27;1241;-55
2021/08/10 16:26:30;;;;;;;;;;;;;;;;;;5103169;28;1599;-54
2021/08/10 16:28:56;;;;;;;;;;;;;;;;;;5102814;27;1961;-56
2021/08/10 16:31:21;;;;;;;;;;;;;;;;;;5103302;28;1194;-55
2021/08/10 16:33:46;;;;;;;;;;;;;;;;;;5101425;27;1389;-55
2021/08/10 16:36:11;;;;;;;;;;;;;;;;;;5104205;28;1115;-55
2021/08/10 16:38:38;;;;;;;;;;;;;;;;;;5100667;28;1585;-55
2021/08/10 16:41:03;;;;;;;;;;;;;;;;;;5105516;27;1107;-53
2021/08/10 16:43:28;;;;;;;;;;;;;;;;;;5100926;28;1851;-54
2021/08/10 16:45:53;;;;;;;;;;;;;;;;;;5103876;27;1360;-55
2021/08/10 16:48:19;;;;;;;;;;;;;;;;;;5102688;28;1917;-54
2021/08/10 16:50:44;;;;;;;;;;;;;;;;;;5100650;27;2022;-54
2021/08/10 16:53:09;;;;;;;;;;;;;;;;;;5102711;28;1170;-56
2021/08/10 16:55:34;;;;;;;;;;;;;;;;;;5102201;28;1267;-54
2021/08/10 16:57:59;;;;;;;;;;;;;;;;;;5103111;28;1546;-55
2021/08/10 17:00:25;;;;;;;;;;;;;;;;;;5100910;27;1592;-55